sensor_id;sensor_type;location;lat;lon;timestamp;temperature;humidity
15698;DHT22;7949;48.726;9.102;2023-06-05T18:58:21;21.80;96.20
15698;DHT22;7949;48.726;9.102;2023-06-05T19:00:48;21.70;96.60
15698;DHT22;7949;48.726;9.102;2023-06-05T19:03:15;21.70;96.60
15698;DHT22;7949;48.726;9.102;2023-06-05T19:05:43;21.70;96.70
15698;DHT22;7949;48.726;9.102;2023-06-05T19:08:11;21.70;96.70
15698;DHT22;7949;48.726;9.102;2023-06-05T19:10:38;21.60;96.80
15698;DHT22;7949;48.726;9.102;2023-06-05T19:13:05;21.50;96.80
15698;DHT22;7949;48.726;9.102;2023-06-05T19:15:35;21.40;97.30
15698;DHT22;7949;48.726;9.102;2023-06-05T19:18:02;21.30;97.40
15698;DHT22;7949;48.726;9.102;2023-06-05T19:20:32;21.20;97.50
15698;DHT22;7949;48.726;9.102;2023-06-05T19:22:58;21.10;97.90
15698;DHT22;7949;48.726;9.102;2023-06-05T19:25:25;21.00;98.30
15698;DHT22;7949;48.726;9.102;2023-06-05T19:27:52;20.90;98.60
15698;DHT22;7949;48.726;9.102;2023-06-05T19:30:19;20.70;98.90
15698;DHT22;7949;48.726;9.102;2023-06-05T19:32:48;20.60;99.20
15698;DHT22;7949;48.726;9.102;2023-06-05T19:35:15;20.50;99.20
15698;DHT22;7949;48.726;9.102;2023-06-05T19:37:44;20.30;99.40
15698;DHT22;7949;48.726;9.102;2023-06-05T19:40:11;20.30;99.60
15698;DHT22;7949;48.726;9.102;2023-06-05T19:42:38;20.20;99.90
15698;DHT22;7949;48.726;9.102;2023-06-05T19:45:07;20.20;99.90
15698;DHT22;7949;48.726;9.102;2023-06-05T19:47:34;20.10;99.90
15698;DHT22;7949;48.726;9.102;2023-06-05T19:50:03;20.00;99.90
15698;DHT22;7949;48.726;9.102;2023-06-05T19:52:31;19.90;99.90
15698;DHT22;7949;48.726;9.102;2023-06-05T19:54:58;19.90;99.90
15698;DHT22;7949;48.726;9.102;2023-06-05T19:57:25;19.90;99.90
15698;DHT22;7949;48.726;9.102;2023-06-05T19:59:52;19.80;99.90
15698;DHT22;7949;48.726;9.102;2023-06-05T20:02:19;19.80;99.90
15698;DHT22;7949;48.726;9.102;2023-06-05T20:04:46;19.70;99.90
15698;DHT22;7949;48.726;9.102;2023-06-05T20:07:14;19.80;99.90
15698;DHT22;7949;48.726;9.102;2023-06-05T20:09:41;19.80;99.90
15698;DHT22;7949;48.726;9.102;2023-06-05T20:12:08;19.80;99.90
15698;DHT22;7949;48.726;9.102;2023-06-05T20:14:36;19.90;99.90
15698;DHT22;7949;48.726;9.102;2023-06-05T20:17:03;20.00;99.90
15698;DHT22;7949;48.726;9.102;2023-06-05T20:19:30;20.10;99.90
15698;DHT22;7949;48.726;9.102;2023-06-05T20:21:57;20.10;99.90
15698;DHT22;7949;48.726;9.102;2023-06-05T20:24:29;20.10;99.90
15698;DHT22;7949;48.726;9.102;2023-06-05T20:26:57;20.10;99.90
15698;DHT22;7949;48.726;9.102;2023-06-05T20:29:24;20.00;99.90
15698;DHT22;7949;48.726;9.102;2023-06-05T20:31:51;20.00;99.90
15698;DHT22;7949;48.726;9.102;2023-06-05T20:34:17;20.00;99.90
15698;DHT22;7949;48.726;9.102;2023-06-05T20:36:44;19.90;99.90
15698;DHT22;7949;48.726;9.102;2023-06-05T20:39:11;19.90;99.90
15698;DHT22;7949;48.726;9.102;2023-06-05T20:41:44;19.90;99.90
15698;DHT22;7949;48.726;9.102;2023-06-05T20:44:16;19.80;99.90
15698;DHT22;7949;48.726;9.102;2023-06-05T20:46:43;19.80;99.90
15698;DHT22;7949;48.726;9.102;2023-06-05T20:49:10;19.80;99.90
15698;DHT22;7949;48.726;9.102;2023-06-05T20:51:41;19.70;99.90
15698;DHT22;7949;48.726;9.102;2023-06-05T20:54:08;19.70;99.90
15698;DHT22;7949;48.726;9.102;2023-06-05T20:56:36;19.60;99.90
15698;DHT22;7949;48.726;9.102;2023-06-05T20:59:04;19.60;99.90
15698;DHT22;7949;48.726;9.102;2023-06-05T21:01:32;19.50;99.90
15698;DHT22;7949;48.726;9.102;2023-06-05T21:04:01;19.40;99.90
15698;DHT22;7949;48.726;9.102;2023-06-05T21:06:28;19.30;99.90
15698;DHT22;7949;48.726;9.102;2023-06-05T21:08:55;19.30;99.90
15698;DHT22;7949;48.726;9.102;2023-06-05T21:11:22;19.20;99.90
15698;DHT22;7949;48.726;9.102;2023-06-05T21:13:49;19.20;99.90
15698;DHT22;7949;48.726;9.102;2023-06-05T21:16:17;19.20;99.90
15698;DHT22;7949;48.726;9.102;2023-06-05T21:18:44;19.10;99.90
15698;DHT22;7949;48.726;9.102;2023-06-05T21:21:11;19.00;99.90
15698;DHT22;7949;48.726;9.102;2023-06-05T21:23:38;19.00;99.90
15698;DHT22;7949;48.726;9.102;2023-06-05T21:26:05;18.90;99.90
15698;DHT22;7949;48.726;9.102;2023-06-05T21:28:32;18.90;99.90
15698;DHT22;7949;48.726;9.102;2023-06-05T21:30:59;18.80;99.90
15698;DHT22;7949;48.726;9.102;2023-06-05T21:33:32;18.70;99.90
15698;DHT22;7949;48.726;9.102;2023-06-05T21:35:59;18.70;99.90
15698;DHT22;7949;48.726;9.102;2023-06-05T21:38:26;18.60;99.90
15698;DHT22;7949;48.726;9.102;2023-06-05T21:40:52;18.60;99.90
15698;DHT22;7949;48.726;9.102;2023-06-05T21:43:19;18.50;99.90
15698;DHT22;7949;48.726;9.102;2023-06-05T21:45:46;18.50;99.90
15698;DHT22;7949;48.726;9.102;2023-06-05T21:48:13;18.40;99.90
15698;DHT22;7949;48.726;9.102;2023-06-05T21:50:41;18.40;99.90
15698;DHT22;7949;48.726;9.102;2023-06-05T21:53:08;18.30;99.90
15698;DHT22;7949;48.726;9.102;2023-06-05T21:55:35;18.30;99.90
15698;DHT22;7949;48.726;9.102;2023-06-05T21:58:02;18.20;99.90
15698;DHT22;7949;48.726;9.102;2023-06-05T22:00:28;18.10;99.90
15698;DHT22;7949;48.726;9.102;2023-06-05T22:02:55;18.10;99.90
15698;DHT22;7949;48.726;9.102;2023-06-05T22:05:22;18.00;99.90
15698;DHT22;7949;48.726;9.102;2023-06-05T22:07:51;17.90;99.90
15698;DHT22;7949;48.726;9.102;2023-06-05T22:10:17;17.80;99.90
15698;DHT22;7949;48.726;9.102;2023-06-05T22:12:44;17.70;99.90
15698;DHT22;7949;48.726;9.102;2023-06-05T22:15:12;17.70;99.90
15698;DHT22;7949;48.726;9.102;2023-06-05T22:17:40;17.60;99.90
15698;DHT22;7949;48.726;9.102;2023-06-05T22:20:11;17.60;99.90
15698;DHT22;7949;48.726;9.102;2023-06-05T22:22:38;17.50;99.90
15698;DHT22;7949;48.726;9.102;2023-06-05T22:25:07;17.40;99.90
15698;DHT22;7949;48.726;9.102;2023-06-05T22:27:34;17.30;99.90
15698;DHT22;7949;48.726;9.102;2023-06-05T22:30:01;17.30;99.90
15698;DHT22;7949;48.726;9.102;2023-06-05T22:32:30;17.20;99.90
15698;DHT22;7949;48.726;9.102;2023-06-05T22:34:57;17.20;99.90
15698;DHT22;7949;48.726;9.102;2023-06-05T22:37:28;17.10;99.90
15698;DHT22;7949;48.726;9.102;2023-06-05T22:39:58;17.20;99.90
15698;DHT22;7949;48.726;9.102;2023-06-05T22:42:27;17.10;99.90
15698;DHT22;7949;48.726;9.102;2023-06-05T22:44:55;17.00;99.90
15698;DHT22;7949;48.726;9.102;2023-06-05T22:47:22;17.00;99.90
15698;DHT22;7949;48.726;9.102;2023-06-05T22:49:50;16.90;99.90
15698;DHT22;7949;48.726;9.102;2023-06-05T22:52:19;16.90;99.90
15698;DHT22;7949;48.726;9.102;2023-06-05T22:54:46;16.90;99.90
15698;DHT22;7949;48.726;9.102;2023-06-05T22:57:12;16.80;99.90
15698;DHT22;7949;48.726;9.102;2023-06-05T22:59:41;16.70;99.90
15698;DHT22;7949;48.726;9.102;2023-06-05T23:02:07;16.70;99.90
15698;DHT22;7949;48.726;9.102;2023-06-05T23:04:34;16.70;99.90
15698;DHT22;7949;48.726;9.102;2023-06-05T23:07:05;16.60;99.90
15698;DHT22;7949;48.726;9.102;2023-06-05T23:09:32;16.60;99.90
15698;DHT22;7949;48.726;9.102;2023-06-05T23:11:59;16.50;99.90
15698;DHT22;7949;48.726;9.102;2023-06-05T23:14:26;16.50;99.90
15698;DHT22;7949;48.726;9.102;2023-06-05T23:16:56;16.50;99.90
15698;DHT22;7949;48.726;9.102;2023-06-05T23:19:22;16.50;99.90
15698;DHT22;7949;48.726;9.102;2023-06-05T23:21:50;16.50;99.90
